Raporty najbliższych stacji METAR

 

EPPO - Poznan/Lawica, Poland
Odległość od stacji: Zd 102km
Aktualizacja: 19-03-23 15:30
niewielkie zachmurzenie
niewielkie zachmurzenie
 Wiatr z Zd
Wiatr: Zd 19 km/h
Temperatura: 19°C
Punkt Rosy: 7°C
Wilgotność: 46%
Ciśnienie: 1023 hPa
Zachmurzenie: niewielkie zachmurzenie
Widoczność: 10 km
Szczegóły o zachmurzeniu: niewielkie zachmurzenie 1463 m
2019/03/23 14:30 EPPO 231430Z 27010KT 9999 FEW048 19/07 Q1023
EPLL - Łódź, Ziemia Łódzka, Polska
Odległość od stacji: ES 127km
Aktualizacja: 19-03-23 15:30
Bezchmurnie
Bezchmurnie
 Wiatr z PdZd
Wiatr: PdZd 11 km/h
Temperatura: 16°C
Punkt Rosy: 6°C
Wilgotność: 52%
Ciśnienie: 1024 hPa
Podsumowanie: Bezchmurnie
Widoczność: większa niż 10 km
2019/03/23 14:30 EPLL 231430Z 22006KT 180V250 CAVOK 16/06 Q1024
EPWR - Wrocław, Dolny Śląsk, Polska
Odległość od stacji: PdZd 198km
Aktualizacja: 19-03-23 15:30
Bezchmurnie
Bezchmurnie
 Wiatr z ZdPnZd
Wiatr: ZdPnZd 11 km/h
Temperatura: 20°C
Punkt Rosy: 8°C
Wilgotność: 46%
Ciśnienie: 1024 hPa
Podsumowanie: Bezchmurnie
Widoczność: większa niż 10 km
2019/03/23 14:30 EPWR 231430Z 30006KT 260V330 CAVOK 20/08 Q1024
 
EPWA - Warszawa, Mazowsze, Polska
Odległość od stacji: Ws 209km
Aktualizacja: 19-03-23 15:30
Bezchmurnie
Bezchmurnie
 Wiatr z PdPdZd
Wiatr: PdPdZd 13 km/h
Temperatura: 16°C
Punkt Rosy: 1°C
Wilgotność: 36%
Ciśnienie: 1024 hPa
Podsumowanie: Bezchmurnie
Widoczność: większa niż 10 km
2019/03/23 14:30 EPWA 231430Z 21007KT 180V240 CAVOK 16/01 Q1024 NOSIG
EPGD - Gdańsk, Pomorze, Polska
Odległość od stacji: Pn 253km
Aktualizacja: 19-03-23 15:30
Przeważnie pochmurno
Przeważnie pochmurno
 Wiatr z PnZd
Wiatr: PnZd 31 km/h
Temperatura: 12°C
Punkt Rosy: 8°C
Wilgotność: 77%
Ciśnienie: 1021 hPa
Zachmurzenie: Przeważnie pochmurno
Widoczność: 6 km
Szczegóły o zachmurzeniu: Przeważnie pochmurno 1006 m
2019/03/23 14:30 EPGD 231430Z 31017KT 6000 BKN033 12/08 Q1021
EPKT - Katowice, Śląsk, Polska
Odległość od stacji: Pd 270km
Aktualizacja: 19-03-23 15:30
Bezchmurnie
Bezchmurnie
 Wiatr z PdZd
Wiatr: PdZd 13 km/h
Temperatura: 17°C
Punkt Rosy: 5°C
Wilgotność: 45%
Ciśnienie: 1024 hPa
Podsumowanie: Bezchmurnie
Widoczność: większa niż 10 km
2019/03/23 14:30 EPKT 231430Z 23007KT 150V260 CAVOK 17/05 Q1024
 
EPSC - Szczecin, Pomorze Zachodnie, Polska
Odległość od stacji: PnZd 329km
Aktualizacja: 19-03-23 15:30
Przeważnie pochmurno
Przeważnie pochmurno
 Wiatr z ZdPnZd
Wiatr: ZdPnZd 22 km/h
Temperatura: 11°C
Punkt Rosy: 6°C
Wilgotność: 72%
Ciśnienie: 1026 hPa
Zachmurzenie: Przeważnie pochmurno
Widoczność: 10 km
Szczegóły o zachmurzeniu: Przeważnie pochmurno 732 m
2019/03/23 14:30 EPSC 231430Z 29012KT 9999 BKN024 11/06 Q1026
EPBY - Bydgoszcz
Odległość od stacji: Pn 95km
Aktualizacja: 19-03-23 15:30
Bezchmurnie
Bezchmurnie
 Wiatr z ZdPdZa
Wiatr: ZdPdZa 20 km/h
Temperatura: 19°C
Punkt Rosy: 8°C
Wilgotność: 49%
Ciśnienie: 1022 hPa
Podsumowanie: Bezchmurnie
Widoczność: większa niż 10 km
2019/03/23 14:30 EPBY 231430Z 25011KT CAVOK 19/08 Q1022
EPZG - Zielona Góra, Ziemia Lubuska, Polska
Odległość od stacji: ZdPdZa 235km
Aktualizacja: 19-03-23 15:00
Bezchmurnie
Bezchmurnie
 Wiatr z Zd
Wiatr: Zd 19 km/h
Temperatura: 21°C
Punkt Rosy: 7°C
Wilgotność: 40%
Ciśnienie: 1024 hPa
Podsumowanie: Bezchmurnie
Widoczność: większa niż 10 km
2019/03/23 14:00 EPZG 231400Z 27010KT 200V310 CAVOK 21/07 Q1024